sensor_id;sensor_type;location;lat;lon;timestamp;P1;durP1;ratioP1;P2;durP2;ratioP2
24008;SDS011;12217;50.792;4.372;2022-10-16T00:01:59;1.45;;;1.20;;
24008;SDS011;12217;50.792;4.372;2022-10-16T00:04:25;2.67;;;1.05;;
24008;SDS011;12217;50.792;4.372;2022-10-16T00:06:51;1.27;;;0.95;;
24008;SDS011;12217;50.792;4.372;2022-10-16T00:09:16;1.30;;;1.20;;
24008;SDS011;12217;50.792;4.372;2022-10-16T00:11:42;1.20;;;1.10;;
24008;SDS011;12217;50.792;4.372;2022-10-16T00:14:09;4.28;;;1.80;;
24008;SDS011;12217;50.792;4.372;2022-10-16T00:16:37;1.63;;;1.10;;
24008;SDS011;12217;50.792;4.372;2022-10-16T00:19:03;1.73;;;1.30;;
24008;SDS011;12217;50.792;4.372;2022-10-16T00:21:29;2.45;;;1.02;;
24008;SDS011;12217;50.792;4.372;2022-10-16T00:24:00;2.05;;;1.20;;
24008;SDS011;12217;50.792;4.372;2022-10-16T00:26:29;1.75;;;1.20;;
24008;SDS011;12217;50.792;4.372;2022-10-16T00:28:56;1.23;;;1.13;;
24008;SDS011;12217;50.792;4.372;2022-10-16T00:31:22;5.55;;;1.30;;
24008;SDS011;12217;50.792;4.372;2022-10-16T00:33:48;1.73;;;0.98;;
24008;SDS011;12217;50.792;4.372;2022-10-16T00:36:16;1.42;;;1.00;;
24008;SDS011;12217;50.792;4.372;2022-10-16T00:38:44;1.33;;;1.00;;
24008;SDS011;12217;50.792;4.372;2022-10-16T00:41:11;2.67;;;1.10;;
24008;SDS011;12217;50.792;4.372;2022-10-16T00:46:17;2.40;;;1.23;;
24008;SDS011;12217;50.792;4.372;2022-10-16T00:51:41;2.60;;;1.40;;
24008;SDS011;12217;50.792;4.372;2022-10-16T00:54:22;1.20;;;1.10;;
24008;SDS011;12217;50.792;4.372;2022-10-16T00:56:50;2.00;;;1.40;;
24008;SDS011;12217;50.792;4.372;2022-10-16T00:59:22;2.90;;;1.40;;
24008;SDS011;12217;50.792;4.372;2022-10-16T01:01:54;2.85;;;1.25;;
24008;SDS011;12217;50.792;4.372;2022-10-16T01:04:20;4.72;;;1.63;;
24008;SDS011;12217;50.792;4.372;2022-10-16T01:14:42;2.03;;;1.35;;
24008;SDS011;12217;50.792;4.372;2022-10-16T01:17:11;4.90;;;1.30;;
24008;SDS011;12217;50.792;4.372;2022-10-16T01:25:47;1.85;;;1.45;;
24008;SDS011;12217;50.792;4.372;2022-10-16T01:28:17;4.70;;;1.52;;
24008;SDS011;12217;50.792;4.372;2022-10-16T01:30:46;3.17;;;1.30;;
24008;SDS011;12217;50.792;4.372;2022-10-16T01:33:20;2.15;;;1.50;;
24008;SDS011;12217;50.792;4.372;2022-10-16T01:35:52;2.88;;;1.48;;
24008;SDS011;12217;50.792;4.372;2022-10-16T01:38:29;3.50;;;1.40;;
24008;SDS011;12217;50.792;4.372;2022-10-16T01:41:01;2.67;;;1.40;;
24008;SDS011;12217;50.792;4.372;2022-10-16T01:46:25;1.90;;;1.70;;
24008;SDS011;12217;50.792;4.372;2022-10-16T01:48:52;2.40;;;1.55;;
24008;SDS011;12217;50.792;4.372;2022-10-16T01:51:20;3.55;;;1.63;;
24008;SDS011;12217;50.792;4.372;2022-10-16T01:53:48;3.92;;;1.70;;
24008;SDS011;12217;50.792;4.372;2022-10-16T01:56:17;2.78;;;1.42;;
24008;SDS011;12217;50.792;4.372;2022-10-16T01:58:47;3.53;;;1.73;;
24008;SDS011;12217;50.792;4.372;2022-10-16T02:01:16;2.42;;;1.80;;
24008;SDS011;12217;50.792;4.372;2022-10-16T02:03:44;2.35;;;1.40;;
24008;SDS011;12217;50.792;4.372;2022-10-16T02:06:11;2.63;;;1.45;;
24008;SDS011;12217;50.792;4.372;2022-10-16T02:08:37;1.83;;;1.33;;
24008;SDS011;12217;50.792;4.372;2022-10-16T02:11:05;3.17;;;1.70;;
24008;SDS011;12217;50.792;4.372;2022-10-16T02:16:12;2.83;;;1.90;;
24008;SDS011;12217;50.792;4.372;2022-10-16T02:18:39;4.70;;;2.00;;
24008;SDS011;12217;50.792;4.372;2022-10-16T02:21:25;1.73;;;1.58;;
24008;SDS011;12217;50.792;4.372;2022-10-16T02:24:04;2.78;;;1.77;;
24008;SDS011;12217;50.792;4.372;2022-10-16T02:29:26;7.70;;;2.30;;
24008;SDS011;12217;50.792;4.372;2022-10-16T02:31:54;3.38;;;2.40;;
24008;SDS011;12217;50.792;4.372;2022-10-16T02:34:23;5.55;;;1.83;;
24008;SDS011;12217;50.792;4.372;2022-10-16T02:36:50;2.97;;;1.75;;
24008;SDS011;12217;50.792;4.372;2022-10-16T02:39:17;6.55;;;2.42;;
24008;SDS011;12217;50.792;4.372;2022-10-16T02:41:43;3.00;;;1.88;;
24008;SDS011;12217;50.792;4.372;2022-10-16T02:44:09;2.10;;;1.80;;
24008;SDS011;12217;50.792;4.372;2022-10-16T02:46:34;4.13;;;2.03;;
24008;SDS011;12217;50.792;4.372;2022-10-16T02:49:00;4.32;;;2.17;;
24008;SDS011;12217;50.792;4.372;2022-10-16T02:51:26;3.95;;;2.25;;
24008;SDS011;12217;50.792;4.372;2022-10-16T02:53:51;2.60;;;2.20;;
24008;SDS011;12217;50.792;4.372;2022-10-16T02:56:17;3.78;;;2.15;;
24008;SDS011;12217;50.792;4.372;2022-10-16T02:58:43;6.15;;;2.45;;
24008;SDS011;12217;50.792;4.372;2022-10-16T03:01:09;6.63;;;2.30;;
24008;SDS011;12217;50.792;4.372;2022-10-16T03:03:35;3.80;;;2.35;;
24008;SDS011;12217;50.792;4.372;2022-10-16T03:06:01;5.30;;;2.17;;
24008;SDS011;12217;50.792;4.372;2022-10-16T03:08:26;2.40;;;2.20;;
24008;SDS011;12217;50.792;4.372;2022-10-16T03:10:52;4.20;;;2.05;;
24008;SDS011;12217;50.792;4.372;2022-10-16T03:13:18;7.72;;;2.47;;
24008;SDS011;12217;50.792;4.372;2022-10-16T03:15:45;5.22;;;2.10;;
24008;SDS011;12217;50.792;4.372;2022-10-16T03:18:11;2.67;;;1.83;;
24008;SDS011;12217;50.792;4.372;2022-10-16T03:20:37;3.70;;;2.08;;
24008;SDS011;12217;50.792;4.372;2022-10-16T03:23:03;2.95;;;2.20;;
24008;SDS011;12217;50.792;4.372;2022-10-16T03:25:28;2.63;;;2.08;;
24008;SDS011;12217;50.792;4.372;2022-10-16T03:27:54;3.35;;;2.22;;
24008;SDS011;12217;50.792;4.372;2022-10-16T03:30:20;3.50;;;2.10;;
24008;SDS011;12217;50.792;4.372;2022-10-16T03:32:45;4.20;;;2.50;;
24008;SDS011;12217;50.792;4.372;2022-10-16T03:35:11;3.97;;;2.20;;
24008;SDS011;12217;50.792;4.372;2022-10-16T03:37:37;4.80;;;2.42;;
24008;SDS011;12217;50.792;4.372;2022-10-16T03:40:03;2.60;;;2.10;;
24008;SDS011;12217;50.792;4.372;2022-10-16T03:42:29;4.60;;;2.20;;
24008;SDS011;12217;50.792;4.372;2022-10-16T03:44:55;3.78;;;2.20;;
24008;SDS011;12217;50.792;4.372;2022-10-16T03:47:20;7.43;;;2.33;;
24008;SDS011;12217;50.792;4.372;2022-10-16T03:49:48;3.10;;;2.33;;
24008;SDS011;12217;50.792;4.372;2022-10-16T03:52:14;5.05;;;2.55;;
24008;SDS011;12217;50.792;4.372;2022-10-16T03:54:40;2.13;;;1.92;;
24008;SDS011;12217;50.792;4.372;2022-10-16T03:57:05;3.63;;;2.42;;
24008;SDS011;12217;50.792;4.372;2022-10-16T03:59:31;4.63;;;2.30;;
24008;SDS011;12217;50.792;4.372;2022-10-16T04:01:57;4.63;;;2.63;;
24008;SDS011;12217;50.792;4.372;2022-10-16T04:04:22;2.80;;;2.42;;
24008;SDS011;12217;50.792;4.372;2022-10-16T04:06:49;5.18;;;2.40;;
24008;SDS011;12217;50.792;4.372;2022-10-16T04:09:14;6.43;;;2.25;;
24008;SDS011;12217;50.792;4.372;2022-10-16T04:11:40;4.28;;;2.20;;
24008;SDS011;12217;50.792;4.372;2022-10-16T04:14:05;4.93;;;2.35;;
24008;SDS011;12217;50.792;4.372;2022-10-16T04:16:31;3.67;;;2.60;;
24008;SDS011;12217;50.792;4.372;2022-10-16T04:18:57;5.25;;;3.00;;
24008;SDS011;12217;50.792;4.372;2022-10-16T04:21:22;4.75;;;2.50;;
24008;SDS011;12217;50.792;4.372;2022-10-16T04:23:48;3.08;;;2.53;;
24008;SDS011;12217;50.792;4.372;2022-10-16T04:26:14;3.95;;;2.33;;
24008;SDS011;12217;50.792;4.372;2022-10-16T04:28:40;4.28;;;2.10;;
24008;SDS011;12217;50.792;4.372;2022-10-16T04:31:05;4.45;;;2.60;;
24008;SDS011;12217;50.792;4.372;2022-10-16T04:33:31;3.35;;;2.40;;
24008;SDS011;12217;50.792;4.372;2022-10-16T04:35:58;2.83;;;2.08;;
24008;SDS011;12217;50.792;4.372;2022-10-16T04:38:25;3.90;;;2.20;;
24008;SDS011;12217;50.792;4.372;2022-10-16T04:40:51;5.38;;;2.55;;
24008;SDS011;12217;50.792;4.372;2022-10-16T04:43:17;3.90;;;2.65;;
24008;SDS011;12217;50.792;4.372;2022-10-16T04:45:43;6.28;;;2.35;;
24008;SDS011;12217;50.792;4.372;2022-10-16T04:48:08;2.67;;;2.13;;
24008;SDS011;12217;50.792;4.372;2022-10-16T04:50:34;4.90;;;2.70;;
24008;SDS011;12217;50.792;4.372;2022-10-16T04:53:00;6.30;;;2.50;;
24008;SDS011;12217;50.792;4.372;2022-10-16T04:55:25;4.80;;;2.20;;
24008;SDS011;12217;50.792;4.372;2022-10-16T04:57:51;10.25;;;2.60;;
24008;SDS011;12217;50.792;4.372;2022-10-16T05:00:17;3.80;;;2.42;;
24008;SDS011;12217;50.792;4.372;2022-10-16T05:02:42;4.63;;;2.50;;
24008;SDS011;12217;50.792;4.372;2022-10-16T05:05:08;5.35;;;2.47;;
24008;SDS011;12217;50.792;4.372;2022-10-16T05:07:34;2.55;;;2.35;;
24008;SDS011;12217;50.792;4.372;2022-10-16T05:10:00;5.22;;;2.50;;
24008;SDS011;12217;50.792;4.372;2022-10-16T05:12:26;8.88;;;2.70;;
24008;SDS011;12217;50.792;4.372;2022-10-16T05:14:51;5.32;;;2.58;;
24008;SDS011;12217;50.792;4.372;2022-10-16T05:17:17;3.85;;;2.30;;
24008;SDS011;12217;50.792;4.372;2022-10-16T05:19:43;4.75;;;2.30;;
24008;SDS011;12217;50.792;4.372;2022-10-16T05:22:08;6.32;;;2.35;;
24008;SDS011;12217;50.792;4.372;2022-10-16T05:24:34;4.10;;;2.45;;
24008;SDS011;12217;50.792;4.372;2022-10-16T05:26:59;5.13;;;2.40;;
24008;SDS011;12217;50.792;4.372;2022-10-16T05:29:25;5.03;;;2.47;;
24008;SDS011;12217;50.792;4.372;2022-10-16T05:31:54;5.85;;;2.45;;
24008;SDS011;12217;50.792;4.372;2022-10-16T05:34:19;3.25;;;2.40;;
24008;SDS011;12217;50.792;4.372;2022-10-16T05:36:46;3.95;;;2.47;;
24008;SDS011;12217;50.792;4.372;2022-10-16T05:39:12;5.20;;;2.58;;
24008;SDS011;12217;50.792;4.372;2022-10-16T05:41:39;3.75;;;2.95;;
24008;SDS011;12217;50.792;4.372;2022-10-16T05:44:05;4.07;;;2.60;;
24008;SDS011;12217;50.792;4.372;2022-10-16T05:46:31;4.53;;;2.75;;
24008;SDS011;12217;50.792;4.372;2022-10-16T05:48:58;4.55;;;2.90;;
24008;SDS011;12217;50.792;4.372;2022-10-16T05:51:23;7.05;;;2.90;;
24008;SDS011;12217;50.792;4.372;2022-10-16T05:53:49;5.13;;;3.92;;
24008;SDS011;12217;50.792;4.372;2022-10-16T05:56:16;6.57;;;3.42;;
24008;SDS011;12217;50.792;4.372;2022-10-16T05:58:42;6.15;;;3.50;;
24008;SDS011;12217;50.792;4.372;2022-10-16T06:01:13;7.07;;;2.92;;
24008;SDS011;12217;50.792;4.372;2022-10-16T06:03:40;8.90;;;3.20;;
24008;SDS011;12217;50.792;4.372;2022-10-16T06:08:35;5.57;;;2.88;;
24008;SDS011;12217;50.792;4.372;2022-10-16T06:11:04;4.65;;;2.80;;
24008;SDS011;12217;50.792;4.372;2022-10-16T06:13:31;6.80;;;2.70;;
24008;SDS011;12217;50.792;4.372;2022-10-16T06:15:57;3.92;;;2.60;;
24008;SDS011;12217;50.792;4.372;2022-10-16T06:18:25;6.15;;;2.90;;
24008;SDS011;12217;50.792;4.372;2022-10-16T06:20:51;5.55;;;2.78;;
24008;SDS011;12217;50.792;4.372;2022-10-16T06:23:17;4.80;;;2.55;;
24008;SDS011;12217;50.792;4.372;2022-10-16T06:25:43;6.85;;;2.58;;
24008;SDS011;12217;50.792;4.372;2022-10-16T06:28:08;7.43;;;3.00;;
24008;SDS011;12217;50.792;4.372;2022-10-16T06:30:34;6.97;;;2.60;;
24008;SDS011;12217;50.792;4.372;2022-10-16T06:33:00;6.30;;;3.03;;
24008;SDS011;12217;50.792;4.372;2022-10-16T06:35:25;3.97;;;2.70;;
24008;SDS011;12217;50.792;4.372;2022-10-16T06:37:52;4.50;;;2.67;;
24008;SDS011;12217;50.792;4.372;2022-10-16T06:40:18;4.32;;;2.50;;
24008;SDS011;12217;50.792;4.372;2022-10-16T06:42:43;3.42;;;2.60;;
24008;SDS011;12217;50.792;4.372;2022-10-16T06:45:10;3.17;;;2.50;;
24008;SDS011;12217;50.792;4.372;2022-10-16T06:47:35;2.90;;;2.25;;
24008;SDS011;12217;50.792;4.372;2022-10-16T06:50:01;4.78;;;2.10;;
24008;SDS011;12217;50.792;4.372;2022-10-16T06:52:28;3.47;;;2.50;;
24008;SDS011;12217;50.792;4.372;2022-10-16T06:54:54;11.30;;;2.30;;
24008;SDS011;12217;50.792;4.372;2022-10-16T06:57:19;4.47;;;2.22;;
24008;SDS011;12217;50.792;4.372;2022-10-16T06:59:45;4.47;;;2.42;;
24008;SDS011;12217;50.792;4.372;2022-10-16T07:02:11;5.85;;;2.20;;
24008;SDS011;12217;50.792;4.372;2022-10-16T07:04:36;2.95;;;2.00;;
24008;SDS011;12217;50.792;4.372;2022-10-16T07:07:02;4.00;;;2.55;;
24008;SDS011;12217;50.792;4.372;2022-10-16T07:09:27;8.95;;;3.13;;
24008;SDS011;12217;50.792;4.372;2022-10-16T07:11:53;6.63;;;2.65;;
24008;SDS011;12217;50.792;4.372;2022-10-16T07:14:19;5.97;;;2.30;;
24008;SDS011;12217;50.792;4.372;2022-10-16T07:16:46;5.63;;;2.28;;
24008;SDS011;12217;50.792;4.372;2022-10-16T07:19:13;6.60;;;2.30;;
24008;SDS011;12217;50.792;4.372;2022-10-16T07:21:40;5.03;;;2.22;;
24008;SDS011;12217;50.792;4.372;2022-10-16T07:24:10;4.85;;;2.17;;
24008;SDS011;12217;50.792;4.372;2022-10-16T07:26:38;3.95;;;2.40;;
24008;SDS011;12217;50.792;4.372;2022-10-16T07:29:06;4.97;;;2.30;;
24008;SDS011;12217;50.792;4.372;2022-10-16T07:31:33;4.55;;;2.10;;
24008;SDS011;12217;50.792;4.372;2022-10-16T07:33:59;3.53;;;1.95;;
24008;SDS011;12217;50.792;4.372;2022-10-16T07:36:25;11.95;;;2.45;;
24008;SDS011;12217;50.792;4.372;2022-10-16T07:38:52;4.45;;;2.50;;
24008;SDS011;12217;50.792;4.372;2022-10-16T07:41:18;3.38;;;2.40;;
24008;SDS011;12217;50.792;4.372;2022-10-16T07:43:47;5.65;;;2.05;;
24008;SDS011;12217;50.792;4.372;2022-10-16T07:46:15;5.93;;;2.58;;
24008;SDS011;12217;50.792;4.372;2022-10-16T07:48:41;6.70;;;2.08;;
24008;SDS011;12217;50.792;4.372;2022-10-16T07:51:10;5.07;;;2.28;;
24008;SDS011;12217;50.792;4.372;2022-10-16T07:53:37;5.20;;;2.20;;
24008;SDS011;12217;50.792;4.372;2022-10-16T07:56:03;4.65;;;2.03;;
24008;SDS011;12217;50.792;4.372;2022-10-16T07:58:31;6.70;;;1.75;;
24008;SDS011;12217;50.792;4.372;2022-10-16T08:00:57;4.97;;;2.35;;
24008;SDS011;12217;50.792;4.372;2022-10-16T08:03:23;3.92;;;1.70;;
24008;SDS011;12217;50.792;4.372;2022-10-16T08:05:50;6.35;;;2.03;;
24008;SDS011;12217;50.792;4.372;2022-10-16T08:08:16;5.07;;;2.05;;
24008;SDS011;12217;50.792;4.372;2022-10-16T08:10:43;3.67;;;1.95;;
24008;SDS011;12217;50.792;4.372;2022-10-16T08:13:09;4.53;;;1.73;;
24008;SDS011;12217;50.792;4.372;2022-10-16T08:15:35;5.97;;;2.10;;
24008;SDS011;12217;50.792;4.372;2022-10-16T08:18:02;4.22;;;1.90;;
24008;SDS011;12217;50.792;4.372;2022-10-16T08:20:29;4.00;;;1.70;;
24008;SDS011;12217;50.792;4.372;2022-10-16T08:22:57;3.72;;;1.80;;
24008;SDS011;12217;50.792;4.372;2022-10-16T08:25:23;8.52;;;2.30;;
24008;SDS011;12217;50.792;4.372;2022-10-16T08:27:50;4.57;;;1.85;;
24008;SDS011;12217;50.792;4.372;2022-10-16T08:30:17;5.25;;;2.25;;
24008;SDS011;12217;50.792;4.372;2022-10-16T08:32:43;6.70;;;1.70;;
24008;SDS011;12217;50.792;4.372;2022-10-16T08:35:10;4.93;;;1.70;;
24008;SDS011;12217;50.792;4.372;2022-10-16T08:37:36;6.65;;;2.20;;
24008;SDS011;12217;50.792;4.372;2022-10-16T08:40:03;8.10;;;2.00;;
24008;SDS011;12217;50.792;4.372;2022-10-16T08:45:33;4.55;;;1.70;;
24008;SDS011;12217;50.792;4.372;2022-10-16T08:48:30;7.97;;;2.05;;
24008;SDS011;12217;50.792;4.372;2022-10-16T08:51:00;5.80;;;1.90;;
24008;SDS011;12217;50.792;4.372;2022-10-16T08:53:31;4.45;;;1.55;;
24008;SDS011;12217;50.792;4.372;2022-10-16T08:56:10;5.45;;;1.80;;
24008;SDS011;12217;50.792;4.372;2022-10-16T08:58:35;7.35;;;1.60;;
24008;SDS011;12217;50.792;4.372;2022-10-16T09:01:02;6.75;;;1.65;;
24008;SDS011;12217;50.792;4.372;2022-10-16T09:11:38;3.75;;;1.42;;
24008;SDS011;12217;50.792;4.372;2022-10-16T09:16:48;6.95;;;1.90;;
24008;SDS011;12217;50.792;4.372;2022-10-16T09:19:31;4.50;;;1.40;;
24008;SDS011;12217;50.792;4.372;2022-10-16T09:22:08;4.15;;;1.30;;
24008;SDS011;12217;50.792;4.372;2022-10-16T09:24:39;5.65;;;1.40;;
24008;SDS011;12217;50.792;4.372;2022-10-16T09:27:06;6.93;;;1.55;;
24008;SDS011;12217;50.792;4.372;2022-10-16T09:29:36;6.10;;;1.65;;
24008;SDS011;12217;50.792;4.372;2022-10-16T09:32:35;3.55;;;1.40;;
24008;SDS011;12217;50.792;4.372;2022-10-16T09:34:55;6.07;;;1.50;;
24008;SDS011;12217;50.792;4.372;2022-10-16T09:37:22;5.15;;;1.85;;
24008;SDS011;12217;50.792;4.372;2022-10-16T09:39:50;6.13;;;2.22;;
24008;SDS011;12217;50.792;4.372;2022-10-16T09:42:31;6.05;;;2.03;;
24008;SDS011;12217;50.792;4.372;2022-10-16T09:44:59;6.75;;;1.63;;
24008;SDS011;12217;50.792;4.372;2022-10-16T09:47:26;5.15;;;1.38;;
24008;SDS011;12217;50.792;4.372;2022-10-16T09:49:55;3.00;;;1.35;;
24008;SDS011;12217;50.792;4.372;2022-10-16T09:52:23;4.50;;;1.50;;
24008;SDS011;12217;50.792;4.372;2022-10-16T09:55:00;5.78;;;1.70;;
24008;SDS011;12217;50.792;4.372;2022-10-16T09:57:28;7.43;;;1.20;;
24008;SDS011;12217;50.792;4.372;2022-10-16T09:59:55;4.07;;;1.33;;
24008;SDS011;12217;50.792;4.372;2022-10-16T10:02:29;4.40;;;1.20;;
24008;SDS011;12217;50.792;4.372;2022-10-16T10:04:59;5.20;;;1.08;;
24008;SDS011;12217;50.792;4.372;2022-10-16T10:07:26;4.22;;;1.40;;
24008;SDS011;12217;50.792;4.372;2022-10-16T10:09:58;4.28;;;1.20;;
24008;SDS011;12217;50.792;4.372;2022-10-16T10:12:29;4.70;;;1.60;;
24008;SDS011;12217;50.792;4.372;2022-10-16T10:15:04;3.15;;;1.30;;
24008;SDS011;12217;50.792;4.372;2022-10-16T10:17:32;3.75;;;1.75;;
24008;SDS011;12217;50.792;4.372;2022-10-16T10:20:15;6.22;;;1.73;;
24008;SDS011;12217;50.792;4.372;2022-10-16T10:22:54;4.55;;;1.77;;
24008;SDS011;12217;50.792;4.372;2022-10-16T10:25:33;6.50;;;1.63;;
24008;SDS011;12217;50.792;4.372;2022-10-16T10:28:04;6.60;;;2.03;;
24008;SDS011;12217;50.792;4.372;2022-10-16T10:30:50;4.00;;;1.20;;
24008;SDS011;12217;50.792;4.372;2022-10-16T10:34:14;4.68;;;1.60;;
24008;SDS011;12217;50.792;4.372;2022-10-16T10:36:35;6.00;;;1.60;;
24008;SDS011;12217;50.792;4.372;2022-10-16T10:41:57;2.65;;;1.35;;
24008;SDS011;12217;50.792;4.372;2022-10-16T10:48:13;5.07;;;1.63;;
24008;SDS011;12217;50.792;4.372;2022-10-16T10:53:18;3.50;;;1.13;;
24008;SDS011;12217;50.792;4.372;2022-10-16T11:07:10;3.67;;;1.05;;
24008;SDS011;12217;50.792;4.372;2022-10-16T11:09:47;4.07;;;1.20;;
24008;SDS011;12217;50.792;4.372;2022-10-16T11:12:18;6.78;;;1.35;;
24008;SDS011;12217;50.792;4.372;2022-10-16T11:14:48;4.15;;;1.40;;
24008;SDS011;12217;50.792;4.372;2022-10-16T11:20:42;6.40;;;1.30;;
24008;SDS011;12217;50.792;4.372;2022-10-16T11:25:59;3.20;;;1.10;;
24008;SDS011;12217;50.792;4.372;2022-10-16T11:28:38;4.53;;;1.08;;
24008;SDS011;12217;50.792;4.372;2022-10-16T11:31:17;3.50;;;1.10;;
24008;SDS011;12217;50.792;4.372;2022-10-16T11:37:04;2.88;;;1.00;;
24008;SDS011;12217;50.792;4.372;2022-10-16T11:39:37;2.28;;;1.08;;
24008;SDS011;12217;50.792;4.372;2022-10-16T11:44:57;3.60;;;1.13;;
24008;SDS011;12217;50.792;4.372;2022-10-16T11:47:43;3.28;;;0.95;;
24008;SDS011;12217;50.792;4.372;2022-10-16T11:55:37;3.05;;;1.30;;
24008;SDS011;12217;50.792;4.372;2022-10-16T11:58:07;3.08;;;1.38;;
24008;SDS011;12217;50.792;4.372;2022-10-16T12:08:31;3.03;;;1.00;;
24008;SDS011;12217;50.792;4.372;2022-10-16T12:11:06;2.42;;;0.88;;
24008;SDS011;12217;50.792;4.372;2022-10-16T12:13:47;5.45;;;1.15;;
24008;SDS011;12217;50.792;4.372;2022-10-16T12:18:39;4.30;;;1.15;;
24008;SDS011;12217;50.792;4.372;2022-10-16T12:21:06;7.03;;;1.35;;
24008;SDS011;12217;50.792;4.372;2022-10-16T12:23:36;2.17;;;0.80;;
24008;SDS011;12217;50.792;4.372;2022-10-16T12:26:03;2.10;;;1.10;;
24008;SDS011;12217;50.792;4.372;2022-10-16T12:28:30;2.30;;;1.05;;
24008;SDS011;12217;50.792;4.372;2022-10-16T12:31:04;1.80;;;0.82;;
24008;SDS011;12217;50.792;4.372;2022-10-16T12:33:36;3.53;;;1.02;;
24008;SDS011;12217;50.792;4.372;2022-10-16T12:36:14;2.15;;;0.80;;
24008;SDS011;12217;50.792;4.372;2022-10-16T12:38:51;2.85;;;0.93;;
24008;SDS011;12217;50.792;4.372;2022-10-16T12:41:25;4.50;;;1.00;;
24008;SDS011;12217;50.792;4.372;2022-10-16T12:43:59;2.60;;;1.20;;
24008;SDS011;12217;50.792;4.372;2022-10-16T12:49:04;3.92;;;0.85;;
24008;SDS011;12217;50.792;4.372;2022-10-16T12:51:40;3.00;;;1.10;;
24008;SDS011;12217;50.792;4.372;2022-10-16T12:54:14;4.13;;;1.13;;
24008;SDS011;12217;50.792;4.372;2022-10-16T12:59:52;3.40;;;1.33;;
24008;SDS011;12217;50.792;4.372;2022-10-16T13:05:21;3.60;;;1.05;;
24008;SDS011;12217;50.792;4.372;2022-10-16T13:19:06;2.20;;;1.10;;
24008;SDS011;12217;50.792;4.372;2022-10-16T13:22:02;3.33;;;1.45;;
24008;SDS011;12217;50.792;4.372;2022-10-16T13:30:27;6.20;;;1.40;;
24008;SDS011;12217;50.792;4.372;2022-10-16T13:33:02;4.47;;;1.20;;
24008;SDS011;12217;50.792;4.372;2022-10-16T13:35:50;4.80;;;1.60;;
24008;SDS011;12217;50.792;4.372;2022-10-16T13:38:19;2.53;;;1.20;;
24008;SDS011;12217;50.792;4.372;2022-10-16T13:40:49;4.15;;;1.08;;
24008;SDS011;12217;50.792;4.372;2022-10-16T13:46:37;1.13;;;0.90;;
24008;SDS011;12217;50.792;4.372;2022-10-16T13:49:04;2.13;;;1.10;;
24008;SDS011;12217;50.792;4.372;2022-10-16T13:51:31;3.78;;;1.50;;
24008;SDS011;12217;50.792;4.372;2022-10-16T13:53:57;2.60;;;1.38;;
24008;SDS011;12217;50.792;4.372;2022-10-16T13:56:29;3.42;;;2.47;;
24008;SDS011;12217;50.792;4.372;2022-10-16T13:59:03;3.13;;;1.60;;
24008;SDS011;12217;50.792;4.372;2022-10-16T14:01:40;2.40;;;1.10;;
24008;SDS011;12217;50.792;4.372;2022-10-16T14:04:09;3.30;;;1.30;;
24008;SDS011;12217;50.792;4.372;2022-10-16T14:06:40;3.42;;;1.10;;
24008;SDS011;12217;50.792;4.372;2022-10-16T14:09:29;4.35;;;1.30;;
24008;SDS011;12217;50.792;4.372;2022-10-16T14:12:00;5.35;;;2.40;;
24008;SDS011;12217;50.792;4.372;2022-10-16T14:14:29;8.52;;;7.03;;
24008;SDS011;12217;50.792;4.372;2022-10-16T14:17:04;6.30;;;5.70;;
24008;SDS011;12217;50.792;4.372;2022-10-16T14:19:30;2.80;;;1.70;;
24008;SDS011;12217;50.792;4.372;2022-10-16T14:21:57;2.38;;;1.40;;
24008;SDS011;12217;50.792;4.372;2022-10-16T14:24:32;2.83;;;1.35;;
24008;SDS011;12217;50.792;4.372;2022-10-16T14:26:59;5.10;;;1.67;;
24008;SDS011;12217;50.792;4.372;2022-10-16T14:29:27;4.25;;;1.45;;
24008;SDS011;12217;50.792;4.372;2022-10-16T14:31:57;2.05;;;1.65;;
24008;SDS011;12217;50.792;4.372;2022-10-16T14:36:54;4.03;;;2.60;;
24008;SDS011;12217;50.792;4.372;2022-10-16T14:39:21;5.85;;;1.48;;
24008;SDS011;12217;50.792;4.372;2022-10-16T14:41:49;2.88;;;1.40;;
24008;SDS011;12217;50.792;4.372;2022-10-16T14:44:17;4.97;;;1.38;;
24008;SDS011;12217;50.792;4.372;2022-10-16T14:46:44;4.68;;;2.10;;
24008;SDS011;12217;50.792;4.372;2022-10-16T14:51:37;5.03;;;2.72;;
24008;SDS011;12217;50.792;4.372;2022-10-16T14:54:07;4.78;;;1.65;;
24008;SDS011;12217;50.792;4.372;2022-10-16T15:04:11;3.35;;;2.08;;
24008;SDS011;12217;50.792;4.372;2022-10-16T15:06:38;2.30;;;1.42;;
24008;SDS011;12217;50.792;4.372;2022-10-16T15:09:03;5.95;;;2.53;;
24008;SDS011;12217;50.792;4.372;2022-10-16T15:11:29;8.52;;;2.28;;
24008;SDS011;12217;50.792;4.372;2022-10-16T15:13:57;4.20;;;2.35;;
24008;SDS011;12217;50.792;4.372;2022-10-16T15:16:23;6.10;;;2.22;;
24008;SDS011;12217;50.792;4.372;2022-10-16T15:18:49;4.07;;;1.90;;
24008;SDS011;12217;50.792;4.372;2022-10-16T15:21:25;3.88;;;1.80;;
24008;SDS011;12217;50.792;4.372;2022-10-16T15:23:55;3.08;;;1.70;;
24008;SDS011;12217;50.792;4.372;2022-10-16T15:26:23;3.17;;;1.65;;
24008;SDS011;12217;50.792;4.372;2022-10-16T15:28:49;5.18;;;2.00;;
24008;SDS011;12217;50.792;4.372;2022-10-16T15:31:15;4.53;;;1.42;;
24008;SDS011;12217;50.792;4.372;2022-10-16T15:33:41;3.30;;;1.60;;
24008;SDS011;12217;50.792;4.372;2022-10-16T15:36:06;2.70;;;1.52;;
24008;SDS011;12217;50.792;4.372;2022-10-16T15:38:33;6.13;;;2.00;;
24008;SDS011;12217;50.792;4.372;2022-10-16T15:40:58;4.38;;;1.92;;
24008;SDS011;12217;50.792;4.372;2022-10-16T15:43:24;5.10;;;2.15;;
24008;SDS011;12217;50.792;4.372;2022-10-16T15:46:04;2.70;;;1.70;;
24008;SDS011;12217;50.792;4.372;2022-10-16T15:48:31;4.15;;;2.13;;
24008;SDS011;12217;50.792;4.372;2022-10-16T15:50:58;4.47;;;2.25;;
24008;SDS011;12217;50.792;4.372;2022-10-16T15:53:25;4.30;;;2.10;;
24008;SDS011;12217;50.792;4.372;2022-10-16T15:55:50;6.13;;;2.50;;
24008;SDS011;12217;50.792;4.372;2022-10-16T15:58:16;7.20;;;3.72;;
24008;SDS011;12217;50.792;4.372;2022-10-16T16:00:42;4.20;;;3.00;;
24008;SDS011;12217;50.792;4.372;2022-10-16T16:03:08;9.18;;;3.83;;
24008;SDS011;12217;50.792;4.372;2022-10-16T16:05:36;9.65;;;6.38;;
24008;SDS011;12217;50.792;4.372;2022-10-16T16:08:03;10.57;;;6.80;;
24008;SDS011;12217;50.792;4.372;2022-10-16T16:10:29;14.65;;;11.48;;
24008;SDS011;12217;50.792;4.372;2022-10-16T16:12:55;13.18;;;11.80;;
24008;SDS011;12217;50.792;4.372;2022-10-16T16:15:21;12.82;;;11.23;;
24008;SDS011;12217;50.792;4.372;2022-10-16T16:17:47;13.27;;;11.07;;
24008;SDS011;12217;50.792;4.372;2022-10-16T16:20:13;21.73;;;17.75;;
24008;SDS011;12217;50.792;4.372;2022-10-16T16:22:38;20.42;;;18.40;;
24008;SDS011;12217;50.792;4.372;2022-10-16T16:25:04;15.05;;;13.73;;
24008;SDS011;12217;50.792;4.372;2022-10-16T16:27:30;16.38;;;14.98;;
24008;SDS011;12217;50.792;4.372;2022-10-16T16:29:58;16.65;;;14.95;;
24008;SDS011;12217;50.792;4.372;2022-10-16T16:32:24;18.73;;;16.88;;
24008;SDS011;12217;50.792;4.372;2022-10-16T16:34:50;19.73;;;17.85;;
24008;SDS011;12217;50.792;4.372;2022-10-16T16:37:16;24.35;;;21.60;;
24008;SDS011;12217;50.792;4.372;2022-10-16T16:39:42;30.05;;;27.25;;
24008;SDS011;12217;50.792;4.372;2022-10-16T16:42:08;32.03;;;28.85;;
24008;SDS011;12217;50.792;4.372;2022-10-16T16:44:35;26.88;;;24.40;;
24008;SDS011;12217;50.792;4.372;2022-10-16T16:47:01;18.67;;;16.77;;
24008;SDS011;12217;50.792;4.372;2022-10-16T16:49:27;8.40;;;7.47;;
24008;SDS011;12217;50.792;4.372;2022-10-16T16:51:53;7.47;;;4.35;;
24008;SDS011;12217;50.792;4.372;2022-10-16T16:54:19;4.15;;;2.95;;
24008;SDS011;12217;50.792;4.372;2022-10-16T16:56:44;8.43;;;4.40;;
24008;SDS011;12217;50.792;4.372;2022-10-16T16:59:14;9.70;;;8.02;;
24008;SDS011;12217;50.792;4.372;2022-10-16T17:01:44;10.20;;;7.80;;
24008;SDS011;12217;50.792;4.372;2022-10-16T17:04:11;13.68;;;7.60;;
24008;SDS011;12217;50.792;4.372;2022-10-16T17:06:40;15.88;;;7.75;;
24008;SDS011;12217;50.792;4.372;2022-10-16T17:09:06;12.68;;;7.25;;